Aviation Digital Data Service (ADDS)

Output produced by METARs form (1007 UTC 23 October 2017)
found at http://aviationweather.gov/adds/metars/
 
KECG 230520Z 2306/2406 10003KT 3SM BR BKN250 
     TEMPO 2306/2309 1/2SM FG BKN002 
     FM230900 12003KT 2SM BR BKN002 
     TEMPO 2309/2312 1/2SM FG 
     FM231300 14008KT P6SM SCT040 BKN250 
     FM231700 15012KT P6SM SCT040 BKN250